Hovedside
METAR-TAF:

METAR-TAF

Lufthavner :

Pohnpei, Mikronesia

breddegrad: 06-59N, lengdegrad: 158-12E, høyde over havet: 2 m

Gjeldene værobservasjon

Denne rapporten ble laget for 46 minutter siden, klokken 00:50 UTC
Vind 6 kt fra Øst
Temperatur 27°C
Luftfuktighet 89%
Trykk 1010 hPa
Sikt: 24.1 km
Spredte skyer i en høyde av 1800 ft, Bygeskyer.
Brutte skyer i en høyde av 30000 ft
lette regnbyger

METAR: PTPN 230050Z 09006KT 15SM -SHRA SCT018CB BKN300 27/25 A2983 RMK CB OHD MOV SW

Tid: 12:36 (01:36 UTC)

Varsel

Denne rapporten ble laget for 1 time og 59 minutter siden, klokken 23:37 UTC
Varsel gyldig fra 23. klokken 00 UTC til 23. klokken 24 UTC
Vind 12 kt fra Øst
Sikt: 10 km
Få skyer i en høyde av 1800 ft
Spredte skyer i en høyde av 5000 ft

TAF: PTPN 222337Z 2300/2324 10012KT P6SM FEW018 SCT050

Værobservasjoner og værvarsel for over 4000 flyplasser (METAR- og TAF-rapporter).

Tilgjengelige stasjoner er representert av de røde og gule prikkene på kartet.

Hold musepekeren over prikken for å se navnet på stasjonen.

Klikk så for å se værobservasjoner og -varsler.

For å forandre kartet kan du klikke på den grønne knappen med svart kryss for å zoome inn, på den grønne knappen med strek for å zoome ut, eller på de grønne pilene for å se tilstøtende kart.


METAR-TAF: